createdAt,value
2023-05-06T00:02:25.443Z,17.65
2023-05-06T00:05:04.173Z,17.56
2023-05-06T00:07:42.499Z,17.38
2023-05-06T00:10:14.130Z,17.29
2023-05-06T00:12:51.713Z,16.89
2023-05-06T00:15:38.585Z,17.07
2023-05-06T00:18:25.927Z,16.94
2023-05-06T00:21:07.495Z,16.87
2023-05-06T00:23:51.304Z,16.74
2023-05-06T00:26:26.226Z,16.68
2023-05-06T00:29:01.977Z,16.59
2023-05-06T00:31:38.753Z,16.55
2023-05-06T00:34:22.798Z,16.47
2023-05-06T00:37:01.263Z,16.43
2023-05-06T00:39:38.095Z,16.41
2023-05-06T00:42:14.354Z,16.43
2023-05-06T00:44:51.913Z,16.39
2023-05-06T00:47:32.437Z,16.39
2023-05-06T00:50:11.536Z,16.41
2023-05-06T00:52:55.634Z,16.43
2023-05-06T00:55:45.885Z,16.45
2023-05-06T00:58:18.398Z,16.41
2023-05-06T01:00:55.100Z,16.43
2023-05-06T01:03:30.367Z,16.52
2023-05-06T01:06:18.043Z,16.56
2023-05-06T01:09:09.948Z,16.56
2023-05-06T01:11:54.846Z,16.56
2023-05-06T01:14:35.264Z,16.60
2023-05-06T01:17:17.699Z,16.61
2023-05-06T01:20:02.174Z,16.67
2023-05-06T01:22:38.825Z,16.63
2023-05-06T01:25:32.602Z,16.62
2023-05-06T01:28:21.503Z,16.60
2023-05-06T01:31:08.258Z,16.61
2023-05-06T01:33:49.918Z,16.60
2023-05-06T01:36:33.287Z,16.58
2023-05-06T01:39:17.868Z,16.55
2023-05-06T01:41:55.325Z,16.55
2023-05-06T01:44:33.606Z,16.51
2023-05-06T01:47:11.831Z,16.48
2023-05-06T01:49:49.172Z,16.49
2023-05-06T01:52:25.720Z,16.22
2023-05-06T01:55:05.682Z,16.42
2023-05-06T01:57:42.288Z,16.31
2023-05-06T02:00:25.028Z,16.35
2023-05-06T02:02:59.001Z,16.00
2023-05-06T02:05:32.262Z,16.27
2023-05-06T02:08:11.477Z,16.24
2023-05-06T02:10:55.708Z,16.18
2023-05-06T02:13:34.425Z,16.17
2023-05-06T02:16:07.295Z,16.13
2023-05-06T02:18:43.956Z,16.08
2023-05-06T02:21:19.293Z,15.95
2023-05-06T02:23:53.237Z,15.97
2023-05-06T02:26:30.176Z,15.92
2023-05-06T02:29:09.996Z,15.86
2023-05-06T02:31:43.460Z,15.83
2023-05-06T02:34:18.124Z,15.83
2023-05-06T02:36:54.089Z,15.83
2023-05-06T02:39:25.854Z,15.79
2023-05-06T02:42:03.121Z,15.73
2023-05-06T02:44:38.538Z,15.69
2023-05-06T02:47:20.128Z,15.68
2023-05-06T02:50:03.209Z,15.43
2023-05-06T02:52:43.084Z,15.56
2023-05-06T02:55:21.627Z,15.58
2023-05-06T02:57:59.663Z,15.46
2023-05-06T03:00:53.259Z,15.52
2023-05-06T03:03:27.026Z,15.46
2023-05-06T03:06:03.534Z,15.43
2023-05-06T03:08:40.793Z,15.37
2023-05-06T03:11:19.275Z,15.32
2023-05-06T03:13:56.971Z,15.29
2023-05-06T03:16:49.337Z,15.23
2023-05-06T03:19:23.594Z,15.18
2023-05-06T03:21:53.981Z,15.00
2023-05-06T03:24:30.537Z,15.14
2023-05-06T03:27:04.149Z,15.08
2023-05-06T03:29:48.882Z,15.09
2023-05-06T03:32:30.233Z,15.04
2023-05-06T03:35:07.701Z,15.04
2023-05-06T03:37:44.450Z,15.01
2023-05-06T03:40:19.276Z,15.00
2023-05-06T03:43:08.742Z,14.98
2023-05-06T03:45:45.138Z,14.97
2023-05-06T03:48:24.404Z,14.99
2023-05-06T03:51:08.444Z,15.02
2023-05-06T03:53:51.768Z,15.08
2023-05-06T03:56:31.943Z,15.08
2023-05-06T03:59:15.952Z,15.07
2023-05-06T04:01:55.255Z,15.14
2023-05-06T04:04:33.210Z,15.19
2023-05-06T04:07:08.379Z,15.19
2023-05-06T04:09:44.782Z,15.20
2023-05-06T04:12:19.682Z,15.18
2023-05-06T04:14:58.977Z,15.22
2023-05-06T04:17:36.344Z,15.20
2023-05-06T04:20:31.944Z,15.25
2023-05-06T04:23:06.808Z,15.26
2023-05-06T04:25:56.551Z,15.29
2023-05-06T04:28:33.526Z,15.20
2023-05-06T04:31:13.313Z,15.29
2023-05-06T04:33:56.002Z,15.33
2023-05-06T04:36:39.416Z,15.33
2023-05-06T04:39:28.934Z,15.30
2023-05-06T04:42:10.860Z,15.27
2023-05-06T04:45:02.127Z,15.13
2023-05-06T04:47:41.959Z,15.26
2023-05-06T04:50:23.176Z,15.20
2023-05-06T04:53:01.236Z,15.08
2023-05-06T04:55:41.329Z,15.25
2023-05-06T04:58:18.927Z,15.27
2023-05-06T05:00:53.654Z,15.35
2023-05-06T05:03:28.074Z,15.36
2023-05-06T05:06:06.084Z,15.46
2023-05-06T05:08:39.873Z,15.60
2023-05-06T05:11:24.189Z,15.65
2023-05-06T05:14:01.965Z,15.61
2023-05-06T05:16:46.603Z,15.71
2023-05-06T05:19:23.799Z,15.71
2023-05-06T05:21:57.748Z,15.74
2023-05-06T05:24:35.416Z,15.83
2023-05-06T05:27:12.602Z,15.82
2023-05-06T05:30:01.587Z,15.91
2023-05-06T05:32:50.357Z,15.99
2023-05-06T05:35:37.404Z,16.02
2023-05-06T05:38:14.575Z,16.11
2023-05-06T05:40:48.336Z,16.17
2023-05-06T05:43:22.319Z,16.19
2023-05-06T05:46:05.918Z,16.19
2023-05-06T05:48:39.592Z,16.16
2023-05-06T05:51:21.024Z,16.15
2023-05-06T05:54:05.198Z,16.16
2023-05-06T05:56:56.448Z,16.20
2023-05-06T05:59:31.725Z,16.38
2023-05-06T06:02:13.955Z,16.49
2023-05-06T06:04:51.789Z,16.62
2023-05-06T06:07:22.665Z,16.75
2023-05-06T06:10:02.584Z,16.85
2023-05-06T06:12:39.871Z,17.00
2023-05-06T06:15:18.525Z,17.17
2023-05-06T06:18:00.965Z,17.28
2023-05-06T06:20:39.995Z,17.36
2023-05-06T06:23:14.757Z,17.49
2023-05-06T06:25:51.697Z,17.45
2023-05-06T06:28:33.702Z,17.69
2023-05-06T06:31:10.167Z,17.82
2023-05-06T06:33:44.936Z,17.93
2023-05-06T06:36:17.173Z,17.99
2023-05-06T06:38:54.992Z,18.09
2023-05-06T06:41:32.280Z,18.03
2023-05-06T06:44:09.939Z,18.22
2023-05-06T06:46:52.074Z,18.14
2023-05-06T06:49:23.959Z,18.45
2023-05-06T06:52:01.879Z,18.52
2023-05-06T06:54:38.404Z,18.65
2023-05-06T06:57:13.206Z,18.73
2023-05-06T07:00:02.789Z,18.84
2023-05-06T07:02:41.405Z,18.96
2023-05-06T07:05:22.574Z,19.07
2023-05-06T07:07:55.043Z,19.11
2023-05-06T07:10:33.484Z,19.14
2023-05-06T07:13:17.494Z,19.20
2023-05-06T07:16:00.975Z,19.33
2023-05-06T07:18:38.277Z,19.44
2023-05-06T07:21:11.935Z,19.56
2023-05-06T07:23:45.225Z,19.65
2023-05-06T07:26:26.641Z,19.78
2023-05-06T07:29:05.582Z,19.83
2023-05-06T07:31:44.908Z,19.95
2023-05-06T07:34:27.656Z,20.03
2023-05-06T07:37:04.224Z,20.17
2023-05-06T07:39:42.610Z,20.15
2023-05-06T07:42:16.138Z,20.14
2023-05-06T07:44:49.318Z,20.24
2023-05-06T07:47:35.577Z,20.39
2023-05-06T07:50:20.368Z,20.52
2023-05-06T07:52:57.496Z,20.42
2023-05-06T07:55:47.436Z,20.68
2023-05-06T07:58:23.362Z,20.77
2023-05-06T08:01:01.899Z,20.99
2023-05-06T08:03:41.632Z,21.03
2023-05-06T08:06:16.163Z,21.16
2023-05-06T08:08:52.355Z,21.35
2023-05-06T08:11:28.989Z,21.44
2023-05-06T08:14:06.187Z,21.58
2023-05-06T08:16:44.261Z,21.61
2023-05-06T08:19:26.401Z,21.82
2023-05-06T08:22:05.453Z,21.93
2023-05-06T08:24:48.616Z,22.05
2023-05-06T08:27:38.191Z,22.13
2023-05-06T08:30:18.953Z,22.19
2023-05-06T08:32:58.246Z,22.33
2023-05-06T08:35:34.952Z,22.40
2023-05-06T08:38:10.177Z,22.45
2023-05-06T08:40:46.750Z,22.53
2023-05-06T08:43:28.091Z,22.57
2023-05-06T08:46:06.477Z,22.33
2023-05-06T08:48:49.889Z,22.70
2023-05-06T08:51:39.460Z,22.74
2023-05-06T08:54:18.884Z,22.83
2023-05-06T08:56:57.538Z,22.92
2023-05-06T08:59:41.015Z,23.03
2023-05-06T09:02:31.493Z,22.96
2023-05-06T09:05:15.369Z,23.18
2023-05-06T09:07:54.561Z,23.26
2023-05-06T09:10:43.255Z,23.32
2023-05-06T09:13:23.713Z,23.38
2023-05-06T09:16:02.875Z,23.52
2023-05-06T09:18:41.250Z,23.55
2023-05-06T09:21:14.405Z,23.48
2023-05-06T09:23:56.517Z,23.51
2023-05-06T09:26:35.470Z,23.54
2023-05-06T09:29:12.012Z,23.67
2023-05-06T09:31:59.098Z,23.86
2023-05-06T09:34:40.422Z,24.02
2023-05-06T09:37:21.266Z,24.14
2023-05-06T09:40:02.985Z,24.20
2023-05-06T09:42:39.605Z,24.29
2023-05-06T09:45:31.245Z,24.33
2023-05-06T09:48:18.489Z,23.73
2023-05-06T09:51:13.622Z,23.57
2023-05-06T09:54:01.810Z,23.61
2023-05-06T09:56:44.297Z,24.39
2023-05-06T09:59:25.785Z,24.04
2023-05-06T10:02:03.440Z,23.76
2023-05-06T10:04:45.084Z,24.36
2023-05-06T10:07:34.824Z,24.39
2023-05-06T10:10:25.236Z,24.62
2023-05-06T10:13:08.566Z,24.61
2023-05-06T10:15:48.264Z,24.58
2023-05-06T10:18:26.865Z,23.86
2023-05-06T10:21:08.800Z,24.39
2023-05-06T10:24:01.490Z,24.12
2023-05-06T10:26:39.814Z,23.99
2023-05-06T10:29:28.418Z,23.72
2023-05-06T10:32:12.331Z,23.66
2023-05-06T10:35:00.919Z,24.08
2023-05-06T10:37:43.785Z,23.96
2023-05-06T10:43:37.038Z,24.08
2023-05-06T10:49:33.754Z,24.20
2023-05-06T10:52:29.668Z,24.14
2023-05-06T10:55:08.887Z,24.17
2023-05-06T10:57:53.936Z,24.03
2023-05-06T11:00:36.625Z,24.04
2023-05-06T11:03:17.586Z,23.37
2023-05-06T11:06:09.285Z,23.80
2023-05-06T11:09:06.649Z,23.94
2023-05-06T11:15:03.234Z,24.42
2023-05-06T11:17:57.920Z,24.42
2023-05-06T11:20:41.731Z,23.83
2023-05-06T11:23:21.294Z,24.33
2023-05-06T11:26:00.098Z,24.18
2023-05-06T11:28:42.821Z,24.28
2023-05-06T11:31:26.857Z,23.51
2023-05-06T11:34:10.578Z,23.95
2023-05-06T11:37:05.975Z,24.16
2023-05-06T11:39:47.203Z,23.92
2023-05-06T11:42:35.301Z,24.33
2023-05-06T11:45:20.908Z,24.41
2023-05-06T11:48:03.321Z,25.15
2023-05-06T11:50:48.870Z,25.28
2023-05-06T11:53:30.956Z,25.39
2023-05-06T11:56:17.697Z,25.56
2023-05-06T11:58:58.624Z,25.63
2023-05-06T12:01:32.612Z,25.83
2023-05-06T12:04:07.988Z,26.07
2023-05-06T12:06:44.023Z,26.32
2023-05-06T12:09:27.098Z,26.57
2023-05-06T12:12:06.516Z,26.61
2023-05-06T12:14:52.098Z,26.50
2023-05-06T12:17:27.621Z,26.29
2023-05-06T12:19:59.199Z,26.30
2023-05-06T12:22:39.523Z,26.20
2023-05-06T12:25:22.472Z,26.15
2023-05-06T12:27:54.945Z,26.44
2023-05-06T12:30:44.458Z,26.60
2023-05-06T12:33:21.665Z,26.79
2023-05-06T12:36:15.761Z,27.02
2023-05-06T12:39:00.316Z,27.37
2023-05-06T12:41:47.237Z,27.57
2023-05-06T12:44:40.985Z,27.56
2023-05-06T12:47:16.503Z,27.71
2023-05-06T12:50:01.573Z,27.92
2023-05-06T12:52:40.293Z,28.05
2023-05-06T12:55:23.056Z,28.25
2023-05-06T12:57:58.558Z,28.38
2023-05-06T13:00:42.468Z,28.46
2023-05-06T13:03:18.318Z,28.63
2023-05-06T13:05:55.945Z,28.69
2023-05-06T13:08:35.541Z,28.78
2023-05-06T13:11:09.337Z,28.79
2023-05-06T13:13:49.917Z,28.78
2023-05-06T13:16:25.484Z,28.67
2023-05-06T13:18:57.735Z,28.48
2023-05-06T13:21:34.254Z,28.44
2023-05-06T13:24:07.503Z,28.34
2023-05-06T13:26:40.012Z,28.21
2023-05-06T13:29:25.476Z,27.95
2023-05-06T13:32:07.085Z,27.94
2023-05-06T13:34:40.980Z,27.85
2023-05-06T13:37:15.212Z,27.70
2023-05-06T13:39:54.292Z,27.55
2023-05-06T13:42:25.309Z,27.45
2023-05-06T13:45:09.152Z,27.47
2023-05-06T13:47:44.460Z,27.48
2023-05-06T13:50:32.679Z,27.62
2023-05-06T13:53:04.803Z,27.75
2023-05-06T13:55:43.904Z,27.83
2023-05-06T13:58:14.365Z,27.80
2023-05-06T14:00:55.966Z,27.87
2023-05-06T14:03:27.782Z,27.82
2023-05-06T14:06:03.512Z,27.93
2023-05-06T14:08:36.155Z,28.00
2023-05-06T14:11:15.329Z,27.96
2023-05-06T14:13:54.076Z,27.84
2023-05-06T14:16:31.227Z,27.78
2023-05-06T14:19:08.179Z,27.59
2023-05-06T14:21:52.172Z,27.48
2023-05-06T14:24:31.147Z,27.44
2023-05-06T14:27:08.875Z,27.34
2023-05-06T14:29:43.326Z,27.26
2023-05-06T14:32:21.816Z,27.06
2023-05-06T14:34:58.885Z,27.12
2023-05-06T14:37:40.058Z,26.99
2023-05-06T14:40:25.864Z,26.91
2023-05-06T14:43:00.933Z,26.80
2023-05-06T14:45:41.137Z,26.74
2023-05-06T14:48:21.564Z,26.70
2023-05-06T14:50:57.953Z,26.64
2023-05-06T14:53:36.549Z,26.57
2023-05-06T14:56:16.431Z,26.51
2023-05-06T14:58:51.653Z,26.45
2023-05-06T15:01:39.813Z,26.42
2023-05-06T15:04:24.024Z,26.43
2023-05-06T15:07:06.509Z,26.39
2023-05-06T15:09:55.015Z,26.25
2023-05-06T15:12:31.672Z,26.32
2023-05-06T15:15:14.090Z,26.39
2023-05-06T15:17:48.542Z,26.36
2023-05-06T15:20:25.452Z,26.41
2023-05-06T15:23:07.034Z,26.38
2023-05-06T15:25:42.966Z,26.43
2023-05-06T15:28:17.711Z,26.15
2023-05-06T15:30:53.177Z,26.39
2023-05-06T15:33:27.017Z,26.36
2023-05-06T15:36:08.669Z,26.40
2023-05-06T15:39:01.201Z,26.43
2023-05-06T15:41:38.279Z,26.27
2023-05-06T15:44:15.957Z,26.30
2023-05-06T15:46:51.777Z,26.20
2023-05-06T15:52:25.354Z,26.26
2023-05-06T15:55:14.249Z,26.16
2023-05-06T15:57:50.164Z,26.28
2023-05-06T16:00:26.417Z,26.35
2023-05-06T16:03:05.966Z,26.36
2023-05-06T16:05:41.573Z,26.35
2023-05-06T16:08:29.396Z,26.34
2023-05-06T16:11:08.220Z,26.30
2023-05-06T16:13:47.751Z,26.33
2023-05-06T16:16:28.773Z,26.43
2023-05-06T16:19:20.423Z,26.39
2023-05-06T16:22:06.324Z,26.44
2023-05-06T16:24:45.879Z,26.45
2023-05-06T16:27:20.527Z,26.40
2023-05-06T16:30:01.885Z,26.31
2023-05-06T16:32:46.410Z,26.25
2023-05-06T16:35:25.933Z,26.23
2023-05-06T16:38:06.964Z,26.12
2023-05-06T16:40:51.329Z,26.05
2023-05-06T16:43:37.183Z,25.96
2023-05-06T16:46:09.469Z,25.87
2023-05-06T16:48:46.949Z,25.70
2023-05-06T16:51:22.331Z,25.86
2023-05-06T16:54:02.725Z,25.80
2023-05-06T16:56:51.461Z,25.76
2023-05-06T16:59:24.433Z,25.77
2023-05-06T17:01:59.272Z,25.76
2023-05-06T17:04:40.380Z,25.78
2023-05-06T17:07:16.269Z,25.67
2023-05-06T17:10:02.841Z,25.69
2023-05-06T17:15:25.010Z,25.27
2023-05-06T17:17:55.601Z,25.32
2023-05-06T17:20:26.189Z,25.14
2023-05-06T17:22:56.389Z,25.21
2023-05-06T17:25:26.634Z,25.08
2023-05-06T17:27:56.869Z,24.99
2023-05-06T17:30:29.799Z,24.90
2023-05-06T17:33:03.163Z,24.81
2023-05-06T17:35:33.388Z,24.67
2023-05-06T17:38:03.598Z,24.55
2023-05-06T17:40:33.846Z,24.47
2023-05-06T17:43:04.077Z,24.36
2023-05-06T17:45:36.920Z,24.27
2023-05-06T17:48:10.126Z,24.22
2023-05-06T17:50:40.437Z,24.05
2023-05-06T17:53:13.570Z,24.09
2023-05-06T17:55:44.004Z,24.02
2023-05-06T17:58:14.600Z,23.98
2023-05-06T18:00:49.942Z,23.94
2023-05-06T18:03:20.605Z,23.83
2023-05-06T18:05:51.306Z,23.84
2023-05-06T18:08:21.841Z,23.76
2023-05-06T18:10:53.692Z,23.62
2023-05-06T18:13:24.500Z,23.68
2023-05-06T18:15:57.753Z,23.70
2023-05-06T18:18:28.139Z,23.61
2023-05-06T18:20:58.527Z,23.59
2023-05-06T18:23:29.926Z,23.51
2023-05-06T18:26:00.682Z,23.44
2023-05-06T18:28:32.064Z,23.43
2023-05-06T18:31:07.206Z,23.44
2023-05-06T18:33:38.231Z,23.38
2023-05-06T18:36:08.470Z,23.37
2023-05-06T18:38:39.205Z,23.33
2023-05-06T18:41:10.338Z,23.29
2023-05-06T18:43:42.795Z,23.27
2023-05-06T18:46:17.282Z,23.19
2023-05-06T18:48:47.543Z,23.13
2023-05-06T18:51:18.904Z,23.06
2023-05-06T18:53:49.189Z,23.06
2023-05-06T18:56:19.717Z,22.91
2023-05-06T18:58:50.129Z,22.92
2023-05-06T19:01:25.339Z,22.82
2023-05-06T19:03:55.976Z,22.77
2023-05-06T19:06:26.550Z,22.75
2023-05-06T19:08:56.861Z,22.75
2023-05-06T19:11:27.280Z,22.71
2023-05-06T19:13:57.968Z,22.74
2023-05-06T19:16:31.851Z,22.64
2023-05-06T19:19:02.984Z,22.62
2023-05-06T19:21:33.295Z,22.62
2023-05-06T19:24:03.895Z,22.59
2023-05-06T19:26:34.397Z,22.55
2023-05-06T19:29:04.986Z,22.35
2023-05-06T19:31:38.163Z,22.36
2023-05-06T19:34:08.717Z,22.36
2023-05-06T19:36:39.373Z,22.44
2023-05-06T19:39:09.632Z,22.37
2023-05-06T19:41:40.093Z,22.40
2023-05-06T19:44:12.867Z,22.40
2023-05-06T19:46:45.940Z,22.35
2023-05-06T19:49:16.198Z,22.35
2023-05-06T19:51:46.544Z,22.33
2023-05-06T19:54:17.019Z,22.22
2023-05-06T19:56:47.556Z,22.25
2023-05-06T19:59:19.947Z,22.22
2023-05-06T20:01:53.538Z,22.21
2023-05-06T20:04:23.870Z,22.18
2023-05-06T20:06:55.369Z,22.18
2023-05-06T20:09:25.983Z,22.04
2023-05-06T20:11:56.579Z,22.04
2023-05-06T20:14:26.776Z,21.88
2023-05-06T20:16:59.828Z,21.91
2023-05-06T20:19:31.473Z,21.74
2023-05-06T20:22:02.675Z,21.70
2023-05-06T20:24:37.352Z,21.76
2023-05-06T20:27:08.286Z,21.67
2023-05-06T20:29:38.969Z,21.61
2023-05-06T20:32:12.047Z,21.56
2023-05-06T20:34:42.342Z,21.49
2023-05-06T20:37:13.512Z,21.44
2023-05-06T20:39:46.816Z,21.24
2023-05-06T20:42:17.042Z,21.29
2023-05-06T20:44:47.473Z,20.96
2023-05-06T20:47:21.538Z,21.07
2023-05-06T20:49:52.051Z,21.09
2023-05-06T20:52:22.706Z,21.06
2023-05-06T20:54:53.550Z,20.96
2023-05-06T20:57:25.484Z,20.94
2023-05-06T20:59:56.539Z,20.96
2023-05-06T21:02:32.990Z,20.90
2023-05-06T21:05:09.227Z,20.72
2023-05-06T21:07:43.087Z,20.80
2023-05-06T21:10:14.890Z,20.73
2023-05-06T21:12:50.608Z,20.62
2023-05-06T21:15:21.327Z,20.51
2023-05-06T21:17:54.326Z,20.36
2023-05-06T21:20:24.707Z,20.09
2023-05-06T21:22:55.476Z,20.12
2023-05-06T21:25:28.171Z,20.02
2023-05-06T21:28:03.794Z,19.81
2023-05-06T21:30:34.235Z,19.84
2023-05-06T21:33:08.606Z,19.68
2023-05-06T21:35:41.170Z,19.59
2023-05-06T21:38:11.496Z,19.54
2023-05-06T21:40:41.745Z,19.38
2023-05-06T21:43:12.783Z,19.17
2023-05-06T21:45:42.899Z,19.29
2023-05-06T21:48:16.089Z,19.19
2023-05-06T21:50:46.421Z,19.09
2023-05-06T21:53:17.382Z,19.04
2023-05-06T21:55:47.255Z,19.06
2023-05-06T21:58:17.727Z,19.05
2023-05-06T22:00:48.387Z,18.91
2023-05-06T22:03:21.415Z,18.97
2023-05-06T22:05:54.349Z,19.03
2023-05-06T22:08:25.319Z,19.02
2023-05-06T22:10:55.606Z,19.03
2023-05-06T22:13:27.200Z,18.97
2023-05-06T22:15:58.037Z,18.92
2023-05-06T22:18:32.690Z,18.57
2023-05-06T22:21:03.581Z,18.74
2023-05-06T22:23:33.907Z,18.73
2023-05-06T22:26:04.170Z,18.62
2023-05-06T22:28:34.352Z,18.57
2023-05-06T22:31:04.602Z,18.59
2023-05-06T22:33:37.384Z,18.54
2023-05-06T22:36:08.405Z,18.58
2023-05-06T22:38:39.406Z,18.46
2023-05-06T22:41:09.540Z,18.53
2023-05-06T22:43:39.715Z,18.51
2023-05-06T22:46:09.966Z,18.48
2023-05-06T22:48:47.233Z,18.40
2023-05-06T22:51:21.859Z,18.42
2023-05-06T22:53:52.549Z,18.41
2023-05-06T22:56:23.366Z,18.37
2023-05-06T22:58:53.576Z,18.31
2023-05-06T23:01:25.475Z,18.28
2023-05-06T23:03:58.360Z,18.25
2023-05-06T23:06:28.589Z,18.20
2023-05-06T23:08:58.968Z,18.25
2023-05-06T23:11:29.115Z,18.14
2023-05-06T23:13:59.290Z,18.10
2023-05-06T23:16:29.826Z,18.02
2023-05-06T23:19:03.256Z,18.11
2023-05-06T23:21:33.521Z,18.07
2023-05-06T23:24:03.692Z,17.95
2023-05-06T23:26:34.027Z,18.05
2023-05-06T23:29:04.658Z,18.09
2023-05-06T23:31:34.883Z,17.98
2023-05-06T23:34:10.364Z,17.98
2023-05-06T23:36:40.763Z,17.99
2023-05-06T23:39:12.514Z,17.91
2023-05-06T23:41:42.674Z,18.00
2023-05-06T23:44:12.940Z,17.93
2023-05-06T23:46:43.199Z,17.92
2023-05-06T23:49:16.164Z,17.83
2023-05-06T23:51:47.195Z,17.86
2023-05-06T23:54:17.040Z,17.83
2023-05-06T23:56:47.262Z,17.77
2023-05-06T23:59:17.442Z,17.71
